createdAt,value
2022-10-26T00:00:13.626Z,3.10
2022-10-26T00:02:40.252Z,2.90
2022-10-26T00:05:07.297Z,3.20
2022-10-26T00:07:33.986Z,3.20
2022-10-26T00:10:00.635Z,3.30
2022-10-26T00:12:27.225Z,3.07
2022-10-26T00:14:54.170Z,3.10
2022-10-26T00:17:20.762Z,3.07
2022-10-26T00:19:47.342Z,2.97
2022-10-26T00:22:13.944Z,2.63
2022-10-26T00:24:40.523Z,2.70
2022-10-26T00:27:07.160Z,3.10
2022-10-26T00:29:33.783Z,3.20
2022-10-26T00:32:00.472Z,2.60
2022-10-26T00:34:27.064Z,2.63
2022-10-26T00:36:53.666Z,2.70
2022-10-26T00:39:20.374Z,2.70
2022-10-26T00:41:46.961Z,2.90
2022-10-26T00:44:47.342Z,2.90
2022-10-26T00:47:25.112Z,2.33
2022-10-26T00:49:55.752Z,2.80
2022-10-26T00:52:23.531Z,2.60
2022-10-26T00:54:51.101Z,2.70
2022-10-26T00:57:18.923Z,2.93
2022-10-26T00:59:46.357Z,2.83
2022-10-26T01:02:13.357Z,2.83
2022-10-26T01:04:40.046Z,2.50
2022-10-26T01:07:08.392Z,3.00
2022-10-26T01:09:36.164Z,2.93
2022-10-26T01:12:02.826Z,3.10
2022-10-26T01:14:29.938Z,2.70
2022-10-26T01:17:23.756Z,2.80
2022-10-26T01:20:17.711Z,2.50
2022-10-26T01:23:13.863Z,2.90
2022-10-26T01:26:08.206Z,3.20
2022-10-26T01:29:20.281Z,2.93
2022-10-26T01:32:19.875Z,3.13
2022-10-26T01:35:26.962Z,3.20
2022-10-26T01:37:59.311Z,2.80
2022-10-26T01:40:33.198Z,3.10
2022-10-26T01:43:04.124Z,3.70
2022-10-26T01:45:33.742Z,2.97
2022-10-26T01:48:03.155Z,3.13
2022-10-26T01:50:31.150Z,2.80
2022-10-26T01:52:57.728Z,3.00
2022-10-26T01:55:39.398Z,3.10
2022-10-26T01:58:23.035Z,2.90
2022-10-26T02:01:17.612Z,2.83
2022-10-26T02:03:52.927Z,2.33
2022-10-26T02:06:29.187Z,3.10
2022-10-26T02:09:22.176Z,2.40
2022-10-26T02:11:52.468Z,2.87
2022-10-26T02:14:33.787Z,2.73
2022-10-26T02:17:09.835Z,3.03
2022-10-26T02:19:48.972Z,2.73
2022-10-26T02:22:41.400Z,3.47
2022-10-26T02:25:11.799Z,2.70
2022-10-26T02:27:43.470Z,2.50
2022-10-26T02:30:12.207Z,2.53
2022-10-26T02:32:44.941Z,2.90
2022-10-26T02:35:13.409Z,2.60
2022-10-26T02:37:42.050Z,2.77
2022-10-26T02:40:14.242Z,2.70
2022-10-26T02:42:44.100Z,2.90
2022-10-26T02:45:16.551Z,2.50
2022-10-26T02:47:43.531Z,2.53
2022-10-26T02:50:10.654Z,2.70
2022-10-26T02:53:15.587Z,2.40
2022-10-26T02:55:50.546Z,2.70
2022-10-26T02:58:25.837Z,2.17
2022-10-26T03:00:53.327Z,2.60
2022-10-26T03:03:20.647Z,2.40
2022-10-26T03:05:47.497Z,2.67
2022-10-26T03:08:14.176Z,2.17
2022-10-26T03:10:43.366Z,2.33
2022-10-26T03:13:11.333Z,2.30
2022-10-26T03:15:38.580Z,2.07
2022-10-26T03:18:06.433Z,2.53
2022-10-26T03:20:34.980Z,2.40
2022-10-26T03:23:02.198Z,2.50
2022-10-26T03:25:29.100Z,2.30
2022-10-26T03:28:03.671Z,2.77
2022-10-26T03:30:31.281Z,2.20
2022-10-26T03:32:57.983Z,2.47
2022-10-26T03:35:24.742Z,2.30
2022-10-26T03:37:52.012Z,2.17
2022-10-26T03:40:18.902Z,2.00
2022-10-26T03:42:45.570Z,2.13
2022-10-26T03:45:12.207Z,1.93
2022-10-26T03:47:49.015Z,2.50
2022-10-26T03:50:18.258Z,2.47
2022-10-26T03:52:46.193Z,2.30
2022-10-26T03:55:13.063Z,2.40
2022-10-26T03:57:43.890Z,2.57
2022-10-26T04:00:12.550Z,2.67
2022-10-26T04:02:39.189Z,3.00
2022-10-26T04:05:06.409Z,3.50
2022-10-26T04:07:33.099Z,3.40
2022-10-26T04:09:59.676Z,3.53
2022-10-26T04:12:26.376Z,3.43
2022-10-26T04:14:53.127Z,3.50
2022-10-26T04:17:19.797Z,3.13
2022-10-26T04:19:46.414Z,2.83
2022-10-26T04:22:13.105Z,2.67
2022-10-26T04:24:39.803Z,2.70
2022-10-26T04:27:06.636Z,2.90
2022-10-26T04:29:33.254Z,2.70
2022-10-26T04:31:59.902Z,3.00
2022-10-26T04:34:26.495Z,2.90
2022-10-26T04:36:53.063Z,2.43
2022-10-26T04:39:19.631Z,2.77
2022-10-26T04:41:46.256Z,2.87
2022-10-26T04:44:12.861Z,2.67
2022-10-26T04:46:39.494Z,2.50
2022-10-26T04:49:06.083Z,2.60
2022-10-26T04:51:32.690Z,2.63
2022-10-26T04:53:59.329Z,2.13
2022-10-26T04:56:25.935Z,2.60
2022-10-26T04:58:55.371Z,2.57
2022-10-26T05:01:22.486Z,2.50
2022-10-26T05:03:50.782Z,2.77
2022-10-26T05:06:17.480Z,2.70
2022-10-26T05:08:44.043Z,2.60
2022-10-26T05:11:10.996Z,2.53
2022-10-26T05:13:37.629Z,2.53
2022-10-26T05:16:04.462Z,2.50
2022-10-26T05:18:31.093Z,2.50
2022-10-26T05:20:57.675Z,2.70
2022-10-26T05:23:24.652Z,2.47
2022-10-26T05:25:51.358Z,3.00
2022-10-26T05:28:18.876Z,2.93
2022-10-26T05:30:46.720Z,3.13
2022-10-26T05:33:14.498Z,2.70
2022-10-26T05:35:41.565Z,2.73
2022-10-26T05:38:14.550Z,2.50
2022-10-26T05:40:52.674Z,2.83
2022-10-26T05:43:20.607Z,2.67
2022-10-26T05:45:47.573Z,2.90
2022-10-26T05:48:14.180Z,2.83
2022-10-26T05:50:40.741Z,2.50
2022-10-26T05:53:07.341Z,2.70
2022-10-26T05:55:34.783Z,2.50
2022-10-26T05:58:01.906Z,2.50
2022-10-26T06:00:30.134Z,2.40
2022-10-26T06:03:18.272Z,2.67
2022-10-26T06:06:07.482Z,2.40
2022-10-26T06:08:34.494Z,3.37
2022-10-26T06:11:02.751Z,2.63
2022-10-26T06:13:29.612Z,2.93
2022-10-26T06:16:08.035Z,3.20
2022-10-26T06:18:54.151Z,3.37
2022-10-26T06:21:28.156Z,3.20
2022-10-26T06:24:09.492Z,3.10
2022-10-26T06:27:14.607Z,2.67
2022-10-26T06:30:01.535Z,3.03
2022-10-26T06:32:28.678Z,2.97
2022-10-26T06:35:25.743Z,2.90
2022-10-26T06:37:54.070Z,2.73
2022-10-26T06:40:22.407Z,2.93
2022-10-26T06:42:49.482Z,2.67
2022-10-26T06:45:17.345Z,2.90
2022-10-26T06:48:02.716Z,2.37
2022-10-26T06:50:37.945Z,3.07
2022-10-26T06:53:16.802Z,3.20
2022-10-26T06:55:45.689Z,3.10
2022-10-26T06:58:17.292Z,3.20
2022-10-26T07:00:50.073Z,2.67
2022-10-26T07:03:16.927Z,2.30
2022-10-26T07:05:45.093Z,2.60
2022-10-26T07:08:12.555Z,2.63
2022-10-26T07:10:39.799Z,2.67
2022-10-26T07:13:07.344Z,2.30
2022-10-26T07:15:35.324Z,2.60
2022-10-26T07:18:05.619Z,2.37
2022-10-26T07:20:36.103Z,2.50
2022-10-26T07:23:02.901Z,2.13
2022-10-26T07:25:29.729Z,2.10
2022-10-26T07:27:59.951Z,2.63
2022-10-26T07:30:28.154Z,2.13
2022-10-26T07:33:09.927Z,2.47
2022-10-26T07:35:36.887Z,2.27
2022-10-26T07:38:04.396Z,2.00
2022-10-26T07:40:31.235Z,2.10
2022-10-26T07:42:59.729Z,2.30
2022-10-26T07:45:29.516Z,2.23
2022-10-26T07:47:56.717Z,2.27
2022-10-26T07:50:24.542Z,2.17
2022-10-26T07:52:51.592Z,2.13
2022-10-26T07:55:19.161Z,2.50
2022-10-26T07:57:47.525Z,2.20
2022-10-26T08:00:17.567Z,2.23
2022-10-26T08:02:44.859Z,2.37
2022-10-26T08:05:11.576Z,2.10
2022-10-26T08:07:43.283Z,1.80
2022-10-26T08:10:10.507Z,2.10
2022-10-26T08:12:37.653Z,2.23
2022-10-26T08:15:04.938Z,2.50
2022-10-26T08:17:31.558Z,2.10
2022-10-26T08:19:58.724Z,2.03
2022-10-26T08:22:25.708Z,2.30
2022-10-26T08:24:52.270Z,2.00
2022-10-26T08:27:18.842Z,2.40
2022-10-26T08:29:45.422Z,2.40
2022-10-26T08:32:12.021Z,2.40
2022-10-26T08:34:38.701Z,1.80
2022-10-26T08:37:05.330Z,2.20
2022-10-26T08:39:31.939Z,2.40
2022-10-26T08:42:21.875Z,2.00
2022-10-26T08:44:52.422Z,2.57
2022-10-26T08:47:46.396Z,2.20
2022-10-26T08:50:39.283Z,2.10
2022-10-26T08:53:31.177Z,2.07
2022-10-26T08:56:06.594Z,1.90
2022-10-26T08:58:41.607Z,2.47
2022-10-26T09:01:09.281Z,2.10
2022-10-26T09:03:36.067Z,2.07
2022-10-26T09:06:20.604Z,2.00
2022-10-26T09:09:07.475Z,2.20
2022-10-26T09:11:49.527Z,2.23
2022-10-26T09:14:40.546Z,2.60
2022-10-26T09:17:35.670Z,2.20
2022-10-26T09:20:05.373Z,1.80
2022-10-26T09:23:03.063Z,2.30
2022-10-26T09:25:40.477Z,2.23
2022-10-26T09:28:15.700Z,2.60
2022-10-26T09:30:45.093Z,2.30
2022-10-26T09:33:19.718Z,2.50
2022-10-26T09:36:04.981Z,2.27
2022-10-26T09:38:32.916Z,2.10
2022-10-26T09:41:25.247Z,1.90
2022-10-26T09:44:25.931Z,2.80
2022-10-26T09:47:25.102Z,2.23
2022-10-26T09:50:15.140Z,2.77
2022-10-26T09:52:41.795Z,2.10
2022-10-26T09:55:12.148Z,2.17
2022-10-26T09:57:42.734Z,2.20
2022-10-26T10:00:16.758Z,2.30
2022-10-26T10:02:52.590Z,2.70
2022-10-26T10:05:50.147Z,2.40
2022-10-26T10:08:25.405Z,2.47
2022-10-26T10:11:04.011Z,2.43
2022-10-26T10:13:36.872Z,2.07
2022-10-26T10:16:08.235Z,2.17
2022-10-26T10:18:36.218Z,2.70
2022-10-26T10:21:05.069Z,2.90
2022-10-26T10:23:49.400Z,2.50
2022-10-26T10:26:16.128Z,2.87
2022-10-26T10:28:43.602Z,2.30
2022-10-26T10:31:21.805Z,2.60
2022-10-26T10:33:49.363Z,2.70
2022-10-26T10:36:19.995Z,2.47
2022-10-26T10:38:48.878Z,2.70
2022-10-26T10:41:28.131Z,2.53
2022-10-26T10:44:22.558Z,2.80
2022-10-26T10:46:49.295Z,2.10
2022-10-26T10:49:23.196Z,2.50
2022-10-26T10:51:50.094Z,2.63
2022-10-26T10:54:38.903Z,2.13
2022-10-26T10:57:15.448Z,2.70
2022-10-26T11:00:20.442Z,3.10
2022-10-26T11:03:33.006Z,2.13
2022-10-26T11:06:27.426Z,2.50
2022-10-26T11:09:02.315Z,3.00
2022-10-26T11:11:36.188Z,2.80
2022-10-26T11:14:14.803Z,3.00
2022-10-26T11:16:47.126Z,2.67
2022-10-26T11:19:24.567Z,2.73
2022-10-26T11:21:55.943Z,2.83
2022-10-26T11:24:34.482Z,2.90
2022-10-26T11:27:17.215Z,3.37
2022-10-26T11:30:10.116Z,3.37
2022-10-26T11:32:51.102Z,2.90
2022-10-26T11:35:32.674Z,2.60
2022-10-26T11:38:10.191Z,2.73
2022-10-26T11:40:54.619Z,2.70
2022-10-26T11:43:39.862Z,2.57
2022-10-26T11:46:06.510Z,3.10
2022-10-26T11:48:58.753Z,3.23
2022-10-26T11:51:46.813Z,3.40
2022-10-26T11:56:55.810Z,2.70
2022-10-26T11:59:29.218Z,2.57
2022-10-26T12:02:05.848Z,2.37
2022-10-26T12:04:36.381Z,2.60
2022-10-26T12:07:09.517Z,2.73
2022-10-26T12:09:40.768Z,2.80
2022-10-26T12:12:35.143Z,2.90
2022-10-26T12:18:54.981Z,2.20
2022-10-26T12:21:27.366Z,2.30
2022-10-26T12:23:55.273Z,3.40
2022-10-26T12:26:24.950Z,2.50
2022-10-26T12:29:25.121Z,2.27
2022-10-26T12:31:51.735Z,2.27
2022-10-26T12:34:31.728Z,2.40
2022-10-26T12:36:58.348Z,2.20
2022-10-26T12:39:34.343Z,2.30
2022-10-26T12:42:26.609Z,2.40
2022-10-26T12:44:53.394Z,2.50
2022-10-26T12:47:28.791Z,2.10
2022-10-26T12:50:07.258Z,2.47
2022-10-26T12:52:40.125Z,2.70
2022-10-26T12:55:12.533Z,2.40
2022-10-26T12:58:08.588Z,2.40
2022-10-26T13:00:41.661Z,2.20
2022-10-26T13:03:14.631Z,2.60
2022-10-26T13:06:17.182Z,2.70
2022-10-26T13:08:58.553Z,2.43
2022-10-26T13:11:32.449Z,2.73
2022-10-26T13:14:02.618Z,2.63
2022-10-26T13:16:30.069Z,1.97
2022-10-26T13:18:57.937Z,2.43
2022-10-26T13:21:26.296Z,2.27
2022-10-26T13:23:57.493Z,2.37
2022-10-26T13:26:26.524Z,2.70
2022-10-26T13:28:57.225Z,2.63
2022-10-26T13:31:32.681Z,2.67
2022-10-26T13:34:18.096Z,2.73
2022-10-26T13:37:10.484Z,2.30
2022-10-26T13:43:15.703Z,2.63
2022-10-26T13:46:26.457Z,2.70
2022-10-26T13:49:28.944Z,2.70
2022-10-26T13:51:56.973Z,2.47
2022-10-26T13:54:49.752Z,2.70
2022-10-26T13:57:35.361Z,2.50
2022-10-26T14:00:09.641Z,2.50
2022-10-26T14:02:42.939Z,2.20
2022-10-26T14:05:13.308Z,2.60
2022-10-26T14:07:55.896Z,2.40
2022-10-26T14:10:45.424Z,2.20
2022-10-26T14:13:19.395Z,2.97
2022-10-26T14:15:46.703Z,2.83
2022-10-26T14:18:20.040Z,2.07
2022-10-26T14:21:17.324Z,2.50
2022-10-26T14:23:58.769Z,2.47
2022-10-26T14:26:31.330Z,2.67
2022-10-26T14:29:00.918Z,3.10
2022-10-26T14:31:27.556Z,2.67
2022-10-26T14:33:55.827Z,2.63
2022-10-26T14:36:28.015Z,2.40
2022-10-26T14:38:59.299Z,2.70
2022-10-26T14:41:27.354Z,2.60
2022-10-26T14:43:57.175Z,2.43
2022-10-26T14:46:24.112Z,2.40
2022-10-26T14:48:52.593Z,2.93
2022-10-26T14:51:21.824Z,3.23
2022-10-26T14:53:51.276Z,3.20
2022-10-26T14:56:28.604Z,3.03
2022-10-26T14:58:56.511Z,2.80
2022-10-26T15:01:23.290Z,3.03
2022-10-26T15:03:55.360Z,2.90
2022-10-26T15:06:43.920Z,3.03
2022-10-26T15:09:38.723Z,2.80
2022-10-26T15:12:06.201Z,2.67
2022-10-26T15:14:34.434Z,2.70
2022-10-26T15:17:01.337Z,3.00
2022-10-26T15:19:28.524Z,2.90
2022-10-26T15:21:55.752Z,3.07
2022-10-26T15:24:25.067Z,3.00
2022-10-26T15:26:52.281Z,2.87
2022-10-26T15:29:36.036Z,3.23
2022-10-26T15:34:32.632Z,3.80
2022-10-26T15:36:59.283Z,3.20
2022-10-26T15:39:26.601Z,3.20
2022-10-26T15:41:53.571Z,3.13
2022-10-26T15:44:21.910Z,3.10
2022-10-26T15:46:50.009Z,2.93
2022-10-26T15:49:21.166Z,3.23
2022-10-26T15:51:49.068Z,3.50
2022-10-26T15:54:15.997Z,3.33
2022-10-26T15:56:45.948Z,4.23
2022-10-26T15:59:18.742Z,4.93
2022-10-26T16:01:45.823Z,7.20
2022-10-26T16:04:12.698Z,5.20
2022-10-26T16:06:41.278Z,4.00
2022-10-26T16:09:13.645Z,4.47
2022-10-26T16:11:40.280Z,4.13
2022-10-26T16:14:07.073Z,4.20
2022-10-26T16:16:33.705Z,4.03
2022-10-26T16:21:50.234Z,3.10
2022-10-26T16:24:16.899Z,3.70
2022-10-26T16:26:55.967Z,3.67
2022-10-26T16:29:22.768Z,3.53
2022-10-26T16:31:49.406Z,4.20
2022-10-26T16:34:16.103Z,4.40
2022-10-26T16:36:42.728Z,4.90
2022-10-26T16:39:11.812Z,4.97
2022-10-26T16:41:38.471Z,6.57
2022-10-26T16:44:05.150Z,5.00
2022-10-26T16:46:31.781Z,5.30
2022-10-26T16:48:59.736Z,5.50
2022-10-26T16:51:28.049Z,5.37
2022-10-26T16:53:56.484Z,5.17
2022-10-26T16:56:26.639Z,5.13
2022-10-26T16:58:53.533Z,5.50
2022-10-26T17:01:21.097Z,5.57
2022-10-26T17:03:49.871Z,5.27
2022-10-26T17:06:17.637Z,6.50
2022-10-26T17:08:44.656Z,5.67
2022-10-26T17:11:17.162Z,5.00
2022-10-26T17:13:44.554Z,5.43
2022-10-26T17:16:13.034Z,4.93
2022-10-26T17:18:40.973Z,4.70
2022-10-26T17:21:09.124Z,4.87
2022-10-26T17:23:36.099Z,5.10
2022-10-26T17:26:05.121Z,5.67
2022-10-26T17:28:32.476Z,5.60
2022-10-26T17:31:04.433Z,4.93
2022-10-26T17:33:35.587Z,5.20
2022-10-26T17:36:03.316Z,5.60
2022-10-26T17:38:33.611Z,4.67
2022-10-26T17:41:05.236Z,4.17
2022-10-26T17:43:33.145Z,4.20
2022-10-26T17:46:01.673Z,4.40
2022-10-26T17:48:31.427Z,4.07
2022-10-26T17:50:59.201Z,4.10
2022-10-26T17:53:26.115Z,4.43
2022-10-26T17:56:03.864Z,4.60
2022-10-26T17:58:31.458Z,4.27
2022-10-26T18:01:03.195Z,4.27
2022-10-26T18:03:29.903Z,3.93
2022-10-26T18:05:56.666Z,4.00
2022-10-26T18:08:23.304Z,4.80
2022-10-26T18:10:51.484Z,4.00
2022-10-26T18:13:18.794Z,4.17
2022-10-26T18:15:45.862Z,4.40
2022-10-26T18:18:12.941Z,4.97
2022-10-26T18:20:39.667Z,4.90
2022-10-26T18:23:06.379Z,5.53
2022-10-26T18:25:33.736Z,5.90
2022-10-26T18:28:00.331Z,5.70
2022-10-26T18:30:27.140Z,5.77
2022-10-26T18:32:54.224Z,6.30
2022-10-26T18:35:21.587Z,6.57
2022-10-26T18:37:48.423Z,7.43
2022-10-26T18:40:15.413Z,6.87
2022-10-26T18:42:42.415Z,7.27
2022-10-26T18:45:09.287Z,7.63
2022-10-26T18:47:35.952Z,7.13
2022-10-26T18:50:02.545Z,7.10
2022-10-26T18:52:29.878Z,6.80
2022-10-26T18:54:56.810Z,6.90
2022-10-26T18:57:28.377Z,6.27
2022-10-26T18:59:55.337Z,6.37
2022-10-26T19:02:22.869Z,6.57
2022-10-26T19:04:51.523Z,6.60
2022-10-26T19:07:18.139Z,7.00
2022-10-26T19:09:44.767Z,6.50
2022-10-26T19:12:11.387Z,6.60
2022-10-26T19:14:37.992Z,6.23
2022-10-26T19:17:04.632Z,6.90
2022-10-26T19:19:31.244Z,7.33
2022-10-26T19:22:00.023Z,7.60
2022-10-26T19:24:26.671Z,6.87
2022-10-26T19:26:54.008Z,7.20
2022-10-26T19:29:20.702Z,6.73
2022-10-26T19:31:50.835Z,7.23
2022-10-26T19:34:17.847Z,7.00
2022-10-26T19:36:46.169Z,7.43
2022-10-26T19:39:17.137Z,7.20
2022-10-26T19:41:44.801Z,7.97
2022-10-26T19:44:12.282Z,7.27
2022-10-26T19:46:39.866Z,7.67
2022-10-26T19:49:06.960Z,7.30
2022-10-26T19:51:33.842Z,6.20
2022-10-26T19:54:03.861Z,7.00
2022-10-26T19:56:31.375Z,6.73
2022-10-26T19:58:58.115Z,7.40
2022-10-26T20:01:25.033Z,6.57
2022-10-26T20:03:51.806Z,6.37
2022-10-26T20:06:18.658Z,6.80
2022-10-26T20:08:47.740Z,6.57
2022-10-26T20:11:17.009Z,6.27
2022-10-26T20:13:44.945Z,6.70
2022-10-26T20:16:12.929Z,6.33
2022-10-26T20:18:43.980Z,6.63
2022-10-26T20:21:14.861Z,7.40
2022-10-26T20:23:42.406Z,6.67
2022-10-26T20:26:09.226Z,7.03
2022-10-26T20:28:35.898Z,7.23
2022-10-26T20:31:02.575Z,7.20
2022-10-26T20:33:29.196Z,6.97
2022-10-26T20:35:57.559Z,7.00
2022-10-26T20:38:24.613Z,7.23
2022-10-26T20:40:58.991Z,7.30
2022-10-26T20:43:27.102Z,6.47
2022-10-26T20:45:54.606Z,7.40
2022-10-26T20:48:22.077Z,6.80
2022-10-26T20:51:04.869Z,7.80
2022-10-26T20:53:43.246Z,7.77
2022-10-26T20:56:25.975Z,7.83
2022-10-26T20:58:57.739Z,7.73
2022-10-26T21:01:31.848Z,8.30
2022-10-26T21:04:00.597Z,8.27
2022-10-26T21:06:27.779Z,7.63
2022-10-26T21:08:56.336Z,7.40
2022-10-26T21:11:24.715Z,7.07
2022-10-26T21:13:53.505Z,7.27
2022-10-26T21:18:51.877Z,8.00
2022-10-26T21:21:18.496Z,7.20
2022-10-26T21:23:45.084Z,7.53
2022-10-26T21:26:11.723Z,7.10
2022-10-26T21:28:45.623Z,7.33
2022-10-26T21:31:14.691Z,6.80
2022-10-26T21:33:41.744Z,6.87
2022-10-26T21:36:12.019Z,6.67
2022-10-26T21:38:39.219Z,6.60
2022-10-26T21:41:12.890Z,6.63
2022-10-26T21:43:41.609Z,7.03
2022-10-26T21:46:09.256Z,7.33
2022-10-26T21:48:36.163Z,7.07
2022-10-26T21:51:04.732Z,6.63
2022-10-26T21:53:31.631Z,7.03
2022-10-26T21:56:10.940Z,6.10
2022-10-26T21:58:37.848Z,6.40
2022-10-26T22:01:08.474Z,6.20
2022-10-26T22:03:35.631Z,6.87
2022-10-26T22:06:03.007Z,6.70
2022-10-26T22:08:30.144Z,6.83
2022-10-26T22:10:57.394Z,7.60
2022-10-26T22:13:24.483Z,6.20
2022-10-26T22:16:05.590Z,6.73
2022-10-26T22:18:35.828Z,7.43
2022-10-26T22:21:03.491Z,7.57
2022-10-26T22:23:34.354Z,7.30
2022-10-26T22:26:03.001Z,7.50
2022-10-26T22:28:32.118Z,6.80
2022-10-26T22:31:04.662Z,7.67
2022-10-26T22:33:31.893Z,7.50
2022-10-26T22:36:07.119Z,7.03
2022-10-26T22:38:33.971Z,7.53
2022-10-26T22:41:00.746Z,7.40
2022-10-26T22:43:27.503Z,7.90
2022-10-26T22:46:08.689Z,8.10
2022-10-26T22:48:35.744Z,7.57
2022-10-26T22:51:10.210Z,6.83
2022-10-26T22:53:37.582Z,6.40
2022-10-26T22:56:05.949Z,6.57
2022-10-26T22:58:32.600Z,6.40
2022-10-26T23:01:03.983Z,6.00
2022-10-26T23:03:30.664Z,5.67
2022-10-26T23:05:57.897Z,6.23
2022-10-26T23:08:24.680Z,5.87
2022-10-26T23:10:51.767Z,6.00
2022-10-26T23:13:18.352Z,5.67
2022-10-26T23:15:45.089Z,5.50
2022-10-26T23:18:11.695Z,5.43
2022-10-26T23:20:38.554Z,5.53
2022-10-26T23:23:05.131Z,5.60
2022-10-26T23:25:31.719Z,4.90
2022-10-26T23:27:58.289Z,5.37
2022-10-26T23:30:24.941Z,5.40
2022-10-26T23:32:51.809Z,5.57
2022-10-26T23:35:18.787Z,5.43
2022-10-26T23:37:45.425Z,5.00
2022-10-26T23:40:12.386Z,4.80
2022-10-26T23:42:38.996Z,4.47
2022-10-26T23:45:05.979Z,4.67
2022-10-26T23:47:32.577Z,4.43
2022-10-26T23:49:59.199Z,4.37
2022-10-26T23:52:25.836Z,4.53
2022-10-26T23:54:52.440Z,4.53
2022-10-26T23:57:19.089Z,5.10
2022-10-26T23:59:45.753Z,4.40
